Terminal Aerodrome Forecast
Issued by NWS

Home | Current Version | Previous Version | Graphics & Text | Print | Product List | Glossary On
Versions: 1 2 3 4 5 6 7 8 9 10 11 12 13 14
789
FTUS43 KBIS 162320
TAFJMS
TAF
KJMS 162320Z 1700/1724 VRB05KT P6SM FEW250
     FM171700 22012KT P6SM FEW250=

USA.gov is the U.S. government's official web portal to all federal, state and local government web resources and services.